sensor_id;sensor_type;location;lat;lon;timestamp;P1;durP1;ratioP1;P2;durP2;ratioP2
19946;SDS011;10135;50.702;7.276;2023-12-20T06:00:50;11.57;;;3.00;;
19946;SDS011;10135;50.702;7.276;2023-12-20T06:02:51;7.07;;;2.60;;
19946;SDS011;10135;50.702;7.276;2023-12-20T06:04:51;7.40;;;2.37;;
19946;SDS011;10135;50.702;7.276;2023-12-20T06:06:52;6.80;;;2.73;;
19946;SDS011;10135;50.702;7.276;2023-12-20T06:08:52;6.87;;;2.27;;
19946;SDS011;10135;50.702;7.276;2023-12-20T06:10:53;6.47;;;2.77;;
19946;SDS011;10135;50.702;7.276;2023-12-20T06:12:54;9.60;;;2.63;;
19946;SDS011;10135;50.702;7.276;2023-12-20T06:14:55;10.20;;;2.97;;
19946;SDS011;10135;50.702;7.276;2023-12-20T06:16:57;8.30;;;2.67;;
19946;SDS011;10135;50.702;7.276;2023-12-20T06:18:58;5.47;;;2.60;;
19946;SDS011;10135;50.702;7.276;2023-12-20T06:20:58;9.30;;;2.60;;
19946;SDS011;10135;50.702;7.276;2023-12-20T06:22:59;10.07;;;2.90;;
19946;SDS011;10135;50.702;7.276;2023-12-20T06:25:00;11.33;;;2.80;;
19946;SDS011;10135;50.702;7.276;2023-12-20T06:27:00;10.13;;;2.70;;
19946;SDS011;10135;50.702;7.276;2023-12-20T06:29:01;7.30;;;2.80;;
19946;SDS011;10135;50.702;7.276;2023-12-20T06:31:02;9.97;;;2.53;;
19946;SDS011;10135;50.702;7.276;2023-12-20T06:33:03;11.93;;;2.60;;
19946;SDS011;10135;50.702;7.276;2023-12-20T06:35:04;6.07;;;2.40;;
19946;SDS011;10135;50.702;7.276;2023-12-20T06:37:05;6.53;;;2.67;;
19946;SDS011;10135;50.702;7.276;2023-12-20T06:39:06;10.33;;;2.43;;
19946;SDS011;10135;50.702;7.276;2023-12-20T06:41:07;7.00;;;2.27;;
19946;SDS011;10135;50.702;7.276;2023-12-20T06:43:07;8.27;;;2.77;;
19946;SDS011;10135;50.702;7.276;2023-12-20T06:45:08;6.83;;;2.67;;
19946;SDS011;10135;50.702;7.276;2023-12-20T06:47:10;7.37;;;2.87;;
19946;SDS011;10135;50.702;7.276;2023-12-20T06:49:10;7.33;;;2.60;;
19946;SDS011;10135;50.702;7.276;2023-12-20T06:51:14;6.87;;;2.53;;
19946;SDS011;10135;50.702;7.276;2023-12-20T06:53:16;9.67;;;2.70;;
19946;SDS011;10135;50.702;7.276;2023-12-20T06:55:16;8.43;;;2.60;;
19946;SDS011;10135;50.702;7.276;2023-12-20T06:57:17;7.00;;;2.50;;
19946;SDS011;10135;50.702;7.276;2023-12-20T06:59:19;10.30;;;2.73;;
19946;SDS011;10135;50.702;7.276;2023-12-20T07:01:20;17.83;;;3.27;;
19946;SDS011;10135;50.702;7.276;2023-12-20T07:03:20;6.33;;;2.60;;
19946;SDS011;10135;50.702;7.276;2023-12-20T07:05:21;5.63;;;2.30;;
19946;SDS011;10135;50.702;7.276;2023-12-20T07:07:22;7.50;;;2.70;;
19946;SDS011;10135;50.702;7.276;2023-12-20T07:09:24;6.40;;;2.63;;
19946;SDS011;10135;50.702;7.276;2023-12-20T07:11:25;7.03;;;2.50;;
19946;SDS011;10135;50.702;7.276;2023-12-20T07:13:26;8.77;;;3.37;;
19946;SDS011;10135;50.702;7.276;2023-12-20T07:15:26;7.93;;;2.60;;
19946;SDS011;10135;50.702;7.276;2023-12-20T07:17:29;12.20;;;2.83;;
19946;SDS011;10135;50.702;7.276;2023-12-20T07:19:30;4.17;;;2.33;;
19946;SDS011;10135;50.702;7.276;2023-12-20T07:21:30;6.50;;;2.57;;
19946;SDS011;10135;50.702;7.276;2023-12-20T07:23:31;8.97;;;3.27;;
19946;SDS011;10135;50.702;7.276;2023-12-20T07:25:31;10.10;;;2.60;;
19946;SDS011;10135;50.702;7.276;2023-12-20T07:27:32;7.30;;;2.60;;
19946;SDS011;10135;50.702;7.276;2023-12-20T07:29:33;9.57;;;2.43;;
19946;SDS011;10135;50.702;7.276;2023-12-20T07:31:33;7.17;;;2.67;;
19946;SDS011;10135;50.702;7.276;2023-12-20T07:33:34;8.60;;;2.60;;
19946;SDS011;10135;50.702;7.276;2023-12-20T07:35:35;6.97;;;2.50;;
19946;SDS011;10135;50.702;7.276;2023-12-20T07:37:36;6.07;;;2.40;;
19946;SDS011;10135;50.702;7.276;2023-12-20T07:39:40;7.50;;;2.70;;
19946;SDS011;10135;50.702;7.276;2023-12-20T07:41:41;12.07;;;3.07;;
19946;SDS011;10135;50.702;7.276;2023-12-20T07:43:42;5.70;;;2.83;;
19946;SDS011;10135;50.702;7.276;2023-12-20T07:45:42;8.57;;;2.87;;
19946;SDS011;10135;50.702;7.276;2023-12-20T07:47:43;5.77;;;2.70;;
19946;SDS011;10135;50.702;7.276;2023-12-20T07:49:44;8.10;;;2.63;;
19946;SDS011;10135;50.702;7.276;2023-12-20T07:51:44;8.17;;;2.50;;
19946;SDS011;10135;50.702;7.276;2023-12-20T07:53:45;7.10;;;2.30;;
19946;SDS011;10135;50.702;7.276;2023-12-20T07:55:46;8.00;;;2.70;;
19946;SDS011;10135;50.702;7.276;2023-12-20T07:57:46;7.43;;;2.53;;
19946;SDS011;10135;50.702;7.276;2023-12-20T07:59:47;13.33;;;3.27;;
19946;SDS011;10135;50.702;7.276;2023-12-20T08:01:47;6.43;;;2.40;;
19946;SDS011;10135;50.702;7.276;2023-12-20T08:03:48;7.30;;;2.60;;
19946;SDS011;10135;50.702;7.276;2023-12-20T08:05:50;12.07;;;2.80;;
19946;SDS011;10135;50.702;7.276;2023-12-20T08:07:51;6.90;;;2.60;;
19946;SDS011;10135;50.702;7.276;2023-12-20T08:09:51;9.80;;;2.93;;
19946;SDS011;10135;50.702;7.276;2023-12-20T08:11:53;8.50;;;2.50;;
19946;SDS011;10135;50.702;7.276;2023-12-20T08:13:53;5.70;;;2.53;;
19946;SDS011;10135;50.702;7.276;2023-12-20T08:15:54;9.13;;;2.43;;
19946;SDS011;10135;50.702;7.276;2023-12-20T08:17:56;5.07;;;2.60;;
19946;SDS011;10135;50.702;7.276;2023-12-20T08:19:56;8.23;;;2.67;;
19946;SDS011;10135;50.702;7.276;2023-12-20T08:21:57;8.23;;;2.50;;
19946;SDS011;10135;50.702;7.276;2023-12-20T08:23:57;9.30;;;2.40;;
19946;SDS011;10135;50.702;7.276;2023-12-20T08:26:04;6.57;;;2.40;;
19946;SDS011;10135;50.702;7.276;2023-12-20T08:28:06;9.60;;;2.43;;
19946;SDS011;10135;50.702;7.276;2023-12-20T08:30:10;6.60;;;2.27;;
19946;SDS011;10135;50.702;7.276;2023-12-20T08:32:11;12.37;;;2.60;;
19946;SDS011;10135;50.702;7.276;2023-12-20T08:34:11;9.23;;;2.90;;
19946;SDS011;10135;50.702;7.276;2023-12-20T08:36:15;7.30;;;3.00;;
19946;SDS011;10135;50.702;7.276;2023-12-20T08:38:17;8.57;;;2.27;;
19946;SDS011;10135;50.702;7.276;2023-12-20T08:40:18;9.07;;;2.73;;
19946;SDS011;10135;50.702;7.276;2023-12-20T08:42:20;6.97;;;2.60;;
19946;SDS011;10135;50.702;7.276;2023-12-20T08:44:20;6.70;;;2.30;;
19946;SDS011;10135;50.702;7.276;2023-12-20T08:46:22;6.97;;;2.40;;
19946;SDS011;10135;50.702;7.276;2023-12-20T08:48:23;10.20;;;2.87;;
19946;SDS011;10135;50.702;7.276;2023-12-20T08:50:23;8.53;;;2.60;;
19946;SDS011;10135;50.702;7.276;2023-12-20T08:52:25;8.50;;;2.83;;
19946;SDS011;10135;50.702;7.276;2023-12-20T08:54:27;6.20;;;2.37;;
19946;SDS011;10135;50.702;7.276;2023-12-20T08:56:27;8.80;;;2.50;;
19946;SDS011;10135;50.702;7.276;2023-12-20T08:58:28;6.77;;;2.57;;
19946;SDS011;10135;50.702;7.276;2023-12-20T09:00:29;8.60;;;2.80;;
19946;SDS011;10135;50.702;7.276;2023-12-20T09:02:29;9.20;;;3.10;;
19946;SDS011;10135;50.702;7.276;2023-12-20T09:04:30;12.40;;;2.80;;
19946;SDS011;10135;50.702;7.276;2023-12-20T09:06:31;6.43;;;2.53;;
19946;SDS011;10135;50.702;7.276;2023-12-20T09:08:31;7.97;;;3.00;;
19946;SDS011;10135;50.702;7.276;2023-12-20T09:10:33;7.90;;;2.37;;
19946;SDS011;10135;50.702;7.276;2023-12-20T09:12:33;11.57;;;3.13;;
19946;SDS011;10135;50.702;7.276;2023-12-20T09:14:34;4.00;;;2.50;;
19946;SDS011;10135;50.702;7.276;2023-12-20T09:16:35;9.33;;;3.00;;
19946;SDS011;10135;50.702;7.276;2023-12-20T09:18:35;8.17;;;2.30;;
19946;SDS011;10135;50.702;7.276;2023-12-20T09:20:36;6.87;;;2.73;;
19946;SDS011;10135;50.702;7.276;2023-12-20T09:22:37;10.73;;;3.27;;
19946;SDS011;10135;50.702;7.276;2023-12-20T09:24:39;8.70;;;2.50;;
19946;SDS011;10135;50.702;7.276;2023-12-20T09:26:40;7.60;;;2.87;;
19946;SDS011;10135;50.702;7.276;2023-12-20T09:28:41;8.97;;;2.50;;
19946;SDS011;10135;50.702;7.276;2023-12-20T09:30:42;7.60;;;2.23;;
19946;SDS011;10135;50.702;7.276;2023-12-20T09:32:45;6.13;;;2.23;;
19946;SDS011;10135;50.702;7.276;2023-12-20T09:34:46;4.20;;;2.33;;
19946;SDS011;10135;50.702;7.276;2023-12-20T09:36:47;8.20;;;2.33;;
19946;SDS011;10135;50.702;7.276;2023-12-20T09:38:48;7.13;;;2.33;;
19946;SDS011;10135;50.702;7.276;2023-12-20T09:40:49;7.80;;;2.53;;
19946;SDS011;10135;50.702;7.276;2023-12-20T09:44:56;6.03;;;2.30;;
19946;SDS011;10135;50.702;7.276;2023-12-20T09:47:04;4.80;;;2.50;;
19946;SDS011;10135;50.702;7.276;2023-12-20T09:49:06;4.47;;;2.50;;
19946;SDS011;10135;50.702;7.276;2023-12-20T09:51:07;6.40;;;2.37;;
19946;SDS011;10135;50.702;7.276;2023-12-20T09:53:08;8.63;;;2.40;;
19946;SDS011;10135;50.702;7.276;2023-12-20T09:55:15;8.73;;;2.50;;
19946;SDS011;10135;50.702;7.276;2023-12-20T09:57:20;7.00;;;2.40;;
19946;SDS011;10135;50.702;7.276;2023-12-20T09:59:21;9.70;;;2.73;;
19946;SDS011;10135;50.702;7.276;2023-12-20T10:01:22;7.20;;;2.53;;
19946;SDS011;10135;50.702;7.276;2023-12-20T10:03:24;5.77;;;2.30;;
19946;SDS011;10135;50.702;7.276;2023-12-20T10:05:29;5.73;;;2.53;;
19946;SDS011;10135;50.702;7.276;2023-12-20T10:07:37;10.00;;;2.90;;
19946;SDS011;10135;50.702;7.276;2023-12-20T10:09:37;11.90;;;2.33;;
19946;SDS011;10135;50.702;7.276;2023-12-20T10:11:39;7.07;;;2.40;;
19946;SDS011;10135;50.702;7.276;2023-12-20T10:13:40;9.13;;;2.47;;
19946;SDS011;10135;50.702;7.276;2023-12-20T10:15:41;7.20;;;2.07;;
19946;SDS011;10135;50.702;7.276;2023-12-20T10:17:42;7.00;;;2.40;;
19946;SDS011;10135;50.702;7.276;2023-12-20T10:19:42;6.13;;;2.20;;
19946;SDS011;10135;50.702;7.276;2023-12-20T10:21:43;6.03;;;2.20;;
19946;SDS011;10135;50.702;7.276;2023-12-20T10:23:45;8.50;;;2.63;;
19946;SDS011;10135;50.702;7.276;2023-12-20T10:25:55;7.97;;;2.60;;
19946;SDS011;10135;50.702;7.276;2023-12-20T10:28:13;6.00;;;2.17;;
19946;SDS011;10135;50.702;7.276;2023-12-20T10:30:22;9.30;;;2.83;;
19946;SDS011;10135;50.702;7.276;2023-12-20T10:32:25;6.90;;;2.73;;
19946;SDS011;10135;50.702;7.276;2023-12-20T10:34:27;6.47;;;2.10;;
19946;SDS011;10135;50.702;7.276;2023-12-20T10:36:29;6.67;;;2.17;;
19946;SDS011;10135;50.702;7.276;2023-12-20T10:38:32;5.43;;;2.20;;
19946;SDS011;10135;50.702;7.276;2023-12-20T10:40:36;8.30;;;2.70;;
19946;SDS011;10135;50.702;7.276;2023-12-20T10:42:37;7.40;;;2.67;;
19946;SDS011;10135;50.702;7.276;2023-12-20T10:44:40;8.03;;;2.13;;
19946;SDS011;10135;50.702;7.276;2023-12-20T10:46:42;7.23;;;2.30;;
19946;SDS011;10135;50.702;7.276;2023-12-20T10:48:49;6.07;;;2.50;;
19946;SDS011;10135;50.702;7.276;2023-12-20T10:50:54;7.43;;;2.47;;
19946;SDS011;10135;50.702;7.276;2023-12-20T10:52:56;4.33;;;2.13;;
19946;SDS011;10135;50.702;7.276;2023-12-20T10:54:58;4.40;;;2.57;;
19946;SDS011;10135;50.702;7.276;2023-12-20T10:56:59;10.27;;;2.53;;
19946;SDS011;10135;50.702;7.276;2023-12-20T10:59:01;5.50;;;2.10;;
19946;SDS011;10135;50.702;7.276;2023-12-20T11:01:05;6.37;;;2.63;;
19946;SDS011;10135;50.702;7.276;2023-12-20T11:03:08;7.13;;;2.33;;
19946;SDS011;10135;50.702;7.276;2023-12-20T11:05:19;8.97;;;2.67;;
19946;SDS011;10135;50.702;7.276;2023-12-20T11:07:43;8.33;;;2.80;;
19946;SDS011;10135;50.702;7.276;2023-12-20T11:10:10;5.30;;;2.27;;
19946;SDS011;10135;50.702;7.276;2023-12-20T11:12:29;12.13;;;3.43;;
19946;SDS011;10135;50.702;7.276;2023-12-20T11:14:42;4.53;;;2.13;;
19946;SDS011;10135;50.702;7.276;2023-12-20T11:16:50;13.87;;;2.60;;
19946;SDS011;10135;50.702;7.276;2023-12-20T11:19:05;5.77;;;2.30;;
19946;SDS011;10135;50.702;7.276;2023-12-20T11:21:06;10.57;;;2.60;;
19946;SDS011;10135;50.702;7.276;2023-12-20T11:23:07;8.90;;;2.97;;
19946;SDS011;10135;50.702;7.276;2023-12-20T11:25:09;9.70;;;3.37;;
19946;SDS011;10135;50.702;7.276;2023-12-20T11:27:12;7.40;;;2.90;;
19946;SDS011;10135;50.702;7.276;2023-12-20T11:29:29;9.37;;;3.10;;
19946;SDS011;10135;50.702;7.276;2023-12-20T11:31:39;6.87;;;3.07;;
19946;SDS011;10135;50.702;7.276;2023-12-20T11:33:43;5.97;;;2.70;;
19946;SDS011;10135;50.702;7.276;2023-12-20T11:35:46;5.57;;;2.93;;
19946;SDS011;10135;50.702;7.276;2023-12-20T11:37:46;5.60;;;2.63;;
19946;SDS011;10135;50.702;7.276;2023-12-20T11:42:12;9.17;;;2.70;;
19946;SDS011;10135;50.702;7.276;2023-12-20T11:44:13;6.67;;;2.73;;
19946;SDS011;10135;50.702;7.276;2023-12-20T11:46:17;4.60;;;2.40;;
19946;SDS011;10135;50.702;7.276;2023-12-20T11:48:37;5.37;;;2.50;;
19946;SDS011;10135;50.702;7.276;2023-12-20T11:50:44;7.23;;;2.57;;
19946;SDS011;10135;50.702;7.276;2023-12-20T11:52:45;4.10;;;2.30;;
19946;SDS011;10135;50.702;7.276;2023-12-20T11:54:46;5.47;;;2.70;;
19946;SDS011;10135;50.702;7.276;2023-12-20T11:56:47;5.33;;;2.47;;
19946;SDS011;10135;50.702;7.276;2023-12-20T11:58:49;11.97;;;3.13;;
19946;SDS011;10135;50.702;7.276;2023-12-20T12:00:49;5.67;;;2.27;;
19946;SDS011;10135;50.702;7.276;2023-12-20T12:02:57;8.27;;;2.50;;
19946;SDS011;10135;50.702;7.276;2023-12-20T12:04:59;11.90;;;3.23;;
19946;SDS011;10135;50.702;7.276;2023-12-20T12:07:00;7.90;;;2.30;;
19946;SDS011;10135;50.702;7.276;2023-12-20T12:09:00;7.37;;;2.50;;
19946;SDS011;10135;50.702;7.276;2023-12-20T12:11:05;5.60;;;2.63;;
19946;SDS011;10135;50.702;7.276;2023-12-20T12:13:34;6.23;;;2.60;;
19946;SDS011;10135;50.702;7.276;2023-12-20T12:15:35;7.33;;;2.60;;
19946;SDS011;10135;50.702;7.276;2023-12-20T12:17:36;8.43;;;2.60;;
19946;SDS011;10135;50.702;7.276;2023-12-20T12:19:38;7.80;;;2.60;;
19946;SDS011;10135;50.702;7.276;2023-12-20T12:21:40;5.47;;;2.30;;
19946;SDS011;10135;50.702;7.276;2023-12-20T12:23:41;9.67;;;2.20;;
19946;SDS011;10135;50.702;7.276;2023-12-20T12:25:41;10.50;;;3.10;;
19946;SDS011;10135;50.702;7.276;2023-12-20T12:27:42;7.07;;;2.57;;
19946;SDS011;10135;50.702;7.276;2023-12-20T12:30:02;6.73;;;2.70;;
19946;SDS011;10135;50.702;7.276;2023-12-20T12:32:07;4.70;;;2.70;;
19946;SDS011;10135;50.702;7.276;2023-12-20T12:34:09;6.40;;;2.40;;
19946;SDS011;10135;50.702;7.276;2023-12-20T12:36:10;6.57;;;2.60;;
19946;SDS011;10135;50.702;7.276;2023-12-20T12:38:12;10.80;;;2.77;;
19946;SDS011;10135;50.702;7.276;2023-12-20T12:40:13;6.10;;;2.37;;
19946;SDS011;10135;50.702;7.276;2023-12-20T12:42:16;3.23;;;2.27;;
19946;SDS011;10135;50.702;7.276;2023-12-20T12:44:17;7.37;;;3.20;;
19946;SDS011;10135;50.702;7.276;2023-12-20T12:46:18;5.40;;;2.73;;
19946;SDS011;10135;50.702;7.276;2023-12-20T12:48:18;4.57;;;2.33;;
19946;SDS011;10135;50.702;7.276;2023-12-20T12:50:19;9.50;;;2.83;;
19946;SDS011;10135;50.702;7.276;2023-12-20T12:52:19;5.23;;;2.50;;
19946;SDS011;10135;50.702;7.276;2023-12-20T12:54:20;4.07;;;2.40;;
19946;SDS011;10135;50.702;7.276;2023-12-20T12:56:21;6.07;;;2.50;;
19946;SDS011;10135;50.702;7.276;2023-12-20T12:58:22;8.17;;;2.50;;
19946;SDS011;10135;50.702;7.276;2023-12-20T13:00:23;6.27;;;2.60;;
19946;SDS011;10135;50.702;7.276;2023-12-20T13:02:24;5.17;;;2.40;;
19946;SDS011;10135;50.702;7.276;2023-12-20T13:04:25;4.53;;;2.40;;
19946;SDS011;10135;50.702;7.276;2023-12-20T13:06:26;6.03;;;3.30;;
19946;SDS011;10135;50.702;7.276;2023-12-20T13:08:27;7.73;;;2.73;;
19946;SDS011;10135;50.702;7.276;2023-12-20T13:10:29;6.73;;;2.50;;
19946;SDS011;10135;50.702;7.276;2023-12-20T13:12:29;6.93;;;2.50;;
19946;SDS011;10135;50.702;7.276;2023-12-20T13:14:31;7.77;;;2.87;;
19946;SDS011;10135;50.702;7.276;2023-12-20T13:16:34;5.03;;;2.30;;
19946;SDS011;10135;50.702;7.276;2023-12-20T13:18:35;4.80;;;2.40;;
19946;SDS011;10135;50.702;7.276;2023-12-20T13:20:35;5.00;;;2.50;;
19946;SDS011;10135;50.702;7.276;2023-12-20T13:22:36;6.47;;;2.60;;
19946;SDS011;10135;50.702;7.276;2023-12-20T13:24:37;8.90;;;2.60;;
19946;SDS011;10135;50.702;7.276;2023-12-20T13:26:37;5.37;;;2.43;;
19946;SDS011;10135;50.702;7.276;2023-12-20T13:28:38;9.57;;;2.97;;
19946;SDS011;10135;50.702;7.276;2023-12-20T13:30:39;6.00;;;2.40;;
19946;SDS011;10135;50.702;7.276;2023-12-20T13:32:40;9.17;;;2.47;;
19946;SDS011;10135;50.702;7.276;2023-12-20T13:34:40;6.73;;;2.73;;
19946;SDS011;10135;50.702;7.276;2023-12-20T13:36:41;3.63;;;2.27;;
19946;SDS011;10135;50.702;7.276;2023-12-20T13:38:45;9.97;;;2.53;;
19946;SDS011;10135;50.702;7.276;2023-12-20T13:40:46;4.77;;;2.70;;
19946;SDS011;10135;50.702;7.276;2023-12-20T13:42:47;9.00;;;2.60;;
19946;SDS011;10135;50.702;7.276;2023-12-20T13:47:42;6.37;;;2.70;;
19946;SDS011;10135;50.702;7.276;2023-12-20T13:53:14;9.97;;;2.63;;
19946;SDS011;10135;50.702;7.276;2023-12-20T14:01:48;4.53;;;2.33;;
19946;SDS011;10135;50.702;7.276;2023-12-20T14:04:44;5.20;;;2.33;;
19946;SDS011;10135;50.702;7.276;2023-12-20T14:07:52;5.07;;;2.63;;
19946;SDS011;10135;50.702;7.276;2023-12-20T14:09:55;2.83;;;2.13;;
19946;SDS011;10135;50.702;7.276;2023-12-20T14:40:59;4.83;;;2.17;;
19946;SDS011;10135;50.702;7.276;2023-12-20T14:43:46;2.43;;;1.83;;
19946;SDS011;10135;50.702;7.276;2023-12-20T14:45:50;3.67;;;1.63;;
19946;SDS011;10135;50.702;7.276;2023-12-20T14:49:01;4.27;;;1.90;;
19946;SDS011;10135;50.702;7.276;2023-12-20T15:03:50;2.80;;;1.60;;
19946;SDS011;10135;50.702;7.276;2023-12-20T15:06:23;1.43;;;1.33;;
19946;SDS011;10135;50.702;7.276;2023-12-20T15:11:32;1.57;;;1.30;;
19946;SDS011;10135;50.702;7.276;2023-12-20T15:13:38;4.60;;;1.60;;
19946;SDS011;10135;50.702;7.276;2023-12-20T15:15:47;1.77;;;1.10;;
19946;SDS011;10135;50.702;7.276;2023-12-20T15:17:51;1.57;;;1.17;;
19946;SDS011;10135;50.702;7.276;2023-12-20T15:19:54;3.40;;;2.07;;
19946;SDS011;10135;50.702;7.276;2023-12-20T15:21:58;2.60;;;1.57;;
19946;SDS011;10135;50.702;7.276;2023-12-20T15:39:49;1.90;;;1.50;;
19946;SDS011;10135;50.702;7.276;2023-12-20T15:56:02;3.07;;;1.70;;
19946;SDS011;10135;50.702;7.276;2023-12-20T16:18:32;3.80;;;2.10;;
19946;SDS011;10135;50.702;7.276;2023-12-20T16:20:33;4.33;;;2.00;;
19946;SDS011;10135;50.702;7.276;2023-12-20T16:22:33;3.80;;;1.87;;
19946;SDS011;10135;50.702;7.276;2023-12-20T16:24:34;2.33;;;1.97;;
19946;SDS011;10135;50.702;7.276;2023-12-20T16:26:35;2.30;;;1.80;;
19946;SDS011;10135;50.702;7.276;2023-12-20T16:28:36;3.40;;;2.10;;
19946;SDS011;10135;50.702;7.276;2023-12-20T16:30:36;5.07;;;2.20;;
19946;SDS011;10135;50.702;7.276;2023-12-20T16:32:37;6.37;;;2.17;;
19946;SDS011;10135;50.702;7.276;2023-12-20T16:34:38;3.03;;;2.00;;
19946;SDS011;10135;50.702;7.276;2023-12-20T16:36:48;5.40;;;2.00;;
19946;SDS011;10135;50.702;7.276;2023-12-20T16:38:52;2.97;;;2.10;;
19946;SDS011;10135;50.702;7.276;2023-12-20T16:40:52;3.53;;;1.90;;
19946;SDS011;10135;50.702;7.276;2023-12-20T16:42:55;3.27;;;2.10;;
19946;SDS011;10135;50.702;7.276;2023-12-20T16:44:58;6.23;;;2.53;;
19946;SDS011;10135;50.702;7.276;2023-12-20T16:46:59;3.87;;;2.20;;
19946;SDS011;10135;50.702;7.276;2023-12-20T16:49:00;3.77;;;2.20;;
19946;SDS011;10135;50.702;7.276;2023-12-20T16:51:00;4.07;;;1.90;;
19946;SDS011;10135;50.702;7.276;2023-12-20T16:53:04;4.97;;;2.00;;
19946;SDS011;10135;50.702;7.276;2023-12-20T17:12:49;2.00;;;1.90;;
19946;SDS011;10135;50.702;7.276;2023-12-20T17:48:11;1.93;;;1.83;;
19946;SDS011;10135;50.702;7.276;2023-12-20T17:50:16;4.00;;;1.60;;
19946;SDS011;10135;50.702;7.276;2023-12-20T17:52:17;3.13;;;1.70;;
19946;SDS011;10135;50.702;7.276;2023-12-20T17:54:17;5.37;;;1.73;;
19946;SDS011;10135;50.702;7.276;2023-12-20T17:56:21;4.23;;;2.00;;
19946;SDS011;10135;50.702;7.276;2023-12-20T17:58:21;3.20;;;1.80;;
19946;SDS011;10135;50.702;7.276;2023-12-20T18:00:26;2.70;;;1.90;;
19946;SDS011;10135;50.702;7.276;2023-12-20T18:02:31;3.27;;;1.80;;
19946;SDS011;10135;50.702;7.276;2023-12-20T18:04:31;2.30;;;1.73;;
19946;SDS011;10135;50.702;7.276;2023-12-20T18:06:32;2.37;;;1.90;;
19946;SDS011;10135;50.702;7.276;2023-12-20T18:08:33;3.83;;;1.63;;
19946;SDS011;10135;50.702;7.276;2023-12-20T18:10:45;5.43;;;2.00;;
19946;SDS011;10135;50.702;7.276;2023-12-20T18:12:48;2.50;;;1.80;;
19946;SDS011;10135;50.702;7.276;2023-12-20T18:14:49;2.17;;;1.80;;
19946;SDS011;10135;50.702;7.276;2023-12-20T18:16:52;2.70;;;2.30;;
19946;SDS011;10135;50.702;7.276;2023-12-20T18:18:53;4.17;;;2.13;;
19946;SDS011;10135;50.702;7.276;2023-12-20T18:20:53;3.37;;;1.90;;
19946;SDS011;10135;50.702;7.276;2023-12-20T18:22:54;6.57;;;2.10;;
19946;SDS011;10135;50.702;7.276;2023-12-20T18:24:55;4.50;;;2.10;;
19946;SDS011;10135;50.702;7.276;2023-12-20T18:26:56;9.13;;;2.50;;
19946;SDS011;10135;50.702;7.276;2023-12-20T18:28:57;6.13;;;3.00;;
19946;SDS011;10135;50.702;7.276;2023-12-20T18:30:57;3.90;;;2.30;;
19946;SDS011;10135;50.702;7.276;2023-12-20T18:32:58;3.53;;;2.40;;
19946;SDS011;10135;50.702;7.276;2023-12-20T18:34:58;2.93;;;2.23;;
19946;SDS011;10135;50.702;7.276;2023-12-20T18:36:59;3.07;;;2.37;;
19946;SDS011;10135;50.702;7.276;2023-12-20T18:39:00;4.87;;;2.23;;
19946;SDS011;10135;50.702;7.276;2023-12-20T18:41:01;2.43;;;2.23;;
19946;SDS011;10135;50.702;7.276;2023-12-20T18:43:02;2.30;;;2.07;;
19946;SDS011;10135;50.702;7.276;2023-12-20T18:45:03;3.23;;;2.30;;
19946;SDS011;10135;50.702;7.276;2023-12-20T18:47:04;3.47;;;2.13;;
19946;SDS011;10135;50.702;7.276;2023-12-20T18:49:05;2.53;;;2.00;;
19946;SDS011;10135;50.702;7.276;2023-12-20T18:51:09;4.90;;;2.30;;
19946;SDS011;10135;50.702;7.276;2023-12-20T18:53:09;3.63;;;1.90;;
19946;SDS011;10135;50.702;7.276;2023-12-20T18:55:10;4.67;;;1.93;;
19946;SDS011;10135;50.702;7.276;2023-12-20T18:57:10;2.93;;;2.10;;
19946;SDS011;10135;50.702;7.276;2023-12-20T18:59:11;3.37;;;2.23;;
19946;SDS011;10135;50.702;7.276;2023-12-20T19:01:13;5.27;;;2.80;;
19946;SDS011;10135;50.702;7.276;2023-12-20T19:03:13;3.63;;;2.50;;
19946;SDS011;10135;50.702;7.276;2023-12-20T19:05:14;3.80;;;2.30;;
19946;SDS011;10135;50.702;7.276;2023-12-20T19:07:15;3.50;;;2.37;;
19946;SDS011;10135;50.702;7.276;2023-12-20T19:09:15;1.90;;;1.77;;
19946;SDS011;10135;50.702;7.276;2023-12-20T19:11:16;3.43;;;2.10;;
19946;SDS011;10135;50.702;7.276;2023-12-20T19:13:18;3.17;;;1.90;;
19946;SDS011;10135;50.702;7.276;2023-12-20T19:15:18;2.83;;;1.90;;
19946;SDS011;10135;50.702;7.276;2023-12-20T19:17:19;3.10;;;2.07;;
19946;SDS011;10135;50.702;7.276;2023-12-20T19:19:20;2.83;;;2.30;;
19946;SDS011;10135;50.702;7.276;2023-12-20T19:21:21;2.87;;;1.90;;
19946;SDS011;10135;50.702;7.276;2023-12-20T19:23:22;3.90;;;2.00;;
19946;SDS011;10135;50.702;7.276;2023-12-20T19:25:22;4.33;;;2.10;;
19946;SDS011;10135;50.702;7.276;2023-12-20T19:27:23;2.33;;;1.70;;
19946;SDS011;10135;50.702;7.276;2023-12-20T19:29:24;2.37;;;1.90;;
19946;SDS011;10135;50.702;7.276;2023-12-20T19:31:25;2.23;;;1.70;;
19946;SDS011;10135;50.702;7.276;2023-12-20T19:33:25;2.00;;;1.80;;
19946;SDS011;10135;50.702;7.276;2023-12-20T19:35:26;3.97;;;1.80;;
19946;SDS011;10135;50.702;7.276;2023-12-20T19:37:26;2.37;;;1.93;;
19946;SDS011;10135;50.702;7.276;2023-12-20T19:39:27;2.20;;;1.70;;
19946;SDS011;10135;50.702;7.276;2023-12-20T19:41:28;3.10;;;2.00;;
19946;SDS011;10135;50.702;7.276;2023-12-20T19:43:29;4.87;;;1.90;;
19946;SDS011;10135;50.702;7.276;2023-12-20T19:45:29;1.80;;;1.70;;
19946;SDS011;10135;50.702;7.276;2023-12-20T19:47:33;1.50;;;1.33;;
19946;SDS011;10135;50.702;7.276;2023-12-20T19:49:33;5.17;;;1.97;;
19946;SDS011;10135;50.702;7.276;2023-12-20T19:51:34;3.23;;;1.67;;
19946;SDS011;10135;50.702;7.276;2023-12-20T19:53:35;3.43;;;1.90;;
19946;SDS011;10135;50.702;7.276;2023-12-20T19:55:35;4.90;;;1.63;;
19946;SDS011;10135;50.702;7.276;2023-12-20T19:57:36;3.43;;;1.57;;
19946;SDS011;10135;50.702;7.276;2023-12-20T19:59:37;1.60;;;1.50;;
19946;SDS011;10135;50.702;7.276;2023-12-20T20:01:37;2.87;;;1.70;;
19946;SDS011;10135;50.702;7.276;2023-12-20T20:03:43;3.13;;;1.60;;
19946;SDS011;10135;50.702;7.276;2023-12-20T20:05:43;5.47;;;1.80;;
19946;SDS011;10135;50.702;7.276;2023-12-20T20:07:44;1.60;;;1.50;;
19946;SDS011;10135;50.702;7.276;2023-12-20T20:09:48;4.83;;;1.50;;
19946;SDS011;10135;50.702;7.276;2023-12-20T20:11:49;3.27;;;1.33;;
19946;SDS011;10135;50.702;7.276;2023-12-20T20:13:50;3.90;;;1.80;;
19946;SDS011;10135;50.702;7.276;2023-12-20T20:15:52;4.70;;;1.50;;
19946;SDS011;10135;50.702;7.276;2023-12-20T20:17:53;2.70;;;2.03;;
19946;SDS011;10135;50.702;7.276;2023-12-20T20:19:54;2.77;;;1.60;;
19946;SDS011;10135;50.702;7.276;2023-12-20T20:21:55;2.03;;;1.47;;
19946;SDS011;10135;50.702;7.276;2023-12-20T20:23:55;4.00;;;1.50;;
19946;SDS011;10135;50.702;7.276;2023-12-20T20:25:56;3.97;;;1.43;;
19946;SDS011;10135;50.702;7.276;2023-12-20T20:27:57;1.93;;;1.37;;
19946;SDS011;10135;50.702;7.276;2023-12-20T20:29:57;1.80;;;1.40;;
19946;SDS011;10135;50.702;7.276;2023-12-20T20:31:58;1.70;;;1.53;;
19946;SDS011;10135;50.702;7.276;2023-12-20T20:33:59;1.53;;;1.43;;
19946;SDS011;10135;50.702;7.276;2023-12-20T20:36:00;3.07;;;1.50;;
19946;SDS011;10135;50.702;7.276;2023-12-20T20:38:03;3.90;;;1.50;;
19946;SDS011;10135;50.702;7.276;2023-12-20T20:40:07;4.43;;;1.73;;
19946;SDS011;10135;50.702;7.276;2023-12-20T20:42:11;1.53;;;1.37;;
19946;SDS011;10135;50.702;7.276;2023-12-20T20:44:12;2.73;;;1.20;;
19946;SDS011;10135;50.702;7.276;2023-12-20T20:46:12;2.50;;;1.30;;
19946;SDS011;10135;50.702;7.276;2023-12-20T20:48:13;2.30;;;1.50;;
19946;SDS011;10135;50.702;7.276;2023-12-20T20:50:14;1.40;;;1.23;;
19946;SDS011;10135;50.702;7.276;2023-12-20T20:52:15;4.07;;;1.30;;
19946;SDS011;10135;50.702;7.276;2023-12-20T20:54:16;2.17;;;1.27;;
19946;SDS011;10135;50.702;7.276;2023-12-20T20:56:18;3.60;;;1.57;;
19946;SDS011;10135;50.702;7.276;2023-12-20T20:58:19;2.20;;;1.40;;
19946;SDS011;10135;50.702;7.276;2023-12-20T21:00:20;1.43;;;1.30;;
19946;SDS011;10135;50.702;7.276;2023-12-20T21:02:20;1.47;;;1.33;;